Menus déroulants Compteur de la base de données HP du site Dôme acoustique, la conception des enceintes acoustiques : 6 635 996 --- Nombre recherches en cours : 10

image121-4.jpg


Base de données : Les 50 derniers HP entrés ou modifiés

Mise à jour : 29 ortobre 2017


Le choix des données affichées est volontairement limité au strict nécessaire pour commencer à sélectionner un haut-parleur : Fs, VAS et Qts.

En bas de ce chapitre vous avez les sélections a effectuer pour voir les paramètres THIELE et SMALL et les domaines d'utilisation du haut-parleur que vous choisirez.'


Liste des 50 derniers haut-parleurs entrés ou modifiés de la base :

Le dernier HP entré ou modifié est en début de tableau : Ordre inverse.
HP qui vient d'être entré : Date de création = date de modification.
HP qui vient d'être modifié : Date de création < date de modification. La date de création est en orange.
Sauf dans le cas d'une erreur flagrante, la modification ne concerne que la case "Avis" qui passe d'une valeur non renseignée, 0, à une autre valeur.

Choix
HP
Marque Référence Avis Diam
cm
Type Type
calculé
Impédance
normalisée
Fs
Hz
VAS
L
Qts Date de
création
Date de
modification
FOCAL ACCESS 30 A1 2 31 CAR G 4 Ohms 37.40 52.97 0.420 2021-04-20 2021-04-20
DAYTON RS225P-8A vp JPP-2021 6 21 STD G 8 Ohms 34.27 76.36 0.372 2021-04-10 2021-04-10
AUDAX HD24S45TSM-C-4CA14 3 25 STD SUB 8 Ohms 23.00 190.00 0.421 2021-04-10 2021-04-10
JBL 320-0005-001LF vp 6 12 STD G 4 Ohms 63.95 4.84 0.544 2021-04-09 2021-04-09
LAVOCE WSN041.00 1 10 STD M 8 Ohms 100.00 1.70 0.306 2021-04-08 2021-04-08
TANNOY ECLIPSE GOLD vp 6 17 STD M 8 Ohms 104.00 3.90 0.502 2021-04-06 2021-04-07
GOODMANS AXIETTE 8 VINTAGE vp 3 21 LB G 32 Ohms 53.36 50.00 0.423 2021-04-05 2021-04-05
SUPRAVOX 245 HERITAGE EXC 14V 1 25 LB BM 8 Ohms 50.90 98.00 0.268 2021-04-02 2021-04-02
SUPRAVOX 245 HERITAGE EXC 06V 1 25 LB G 8 Ohms 50.40 100.00 0.440 2021-04-02 2021-04-02
WAREHOUSE G15A ALNICO 1 38 GUI PLAN 8 Ohms 98.53 162.54 1.551 2021-03-30 2021-03-30
DYNAVOX 206159 1 17 STD PLAN 8 Ohms 46.01 27.84 0.943 2021-03-30 2021-03-30
DYNAVOX 204206 1 17 STD SUB 4 Ohms 43.44 32.81 0.836 2021-03-30 2021-03-30
DYNAVOX 204204 1 10 STD G 4 Ohms 97.08 3.65 0.829 2021-03-30 2021-03-30
PURIFI PTT6.5W04-01A 1 17 STD G 4 Ohms 30.00 27.20 0.317 2019-11-22 2021-03-28
KEF B200 SP1014 vp 6 21 STD SUB 8 Ohms 34.71 50.24 0.655 2021-03-27 2021-03-27
MC FARLOW WRB15 vp 6 38 STD SUB 4 Ohms 19.10 593.00 0.373 2021-03-26 2021-03-26
AUDIO NIRVANA 6.5_FE v2005 3 17 LB BM 8 Ohms 51.30 38.80 0.347 2021-03-26 2021-03-26
FOSTEX FE 208 EZ vp 6 21 LB PAV 8 Ohms 41.00 60.10 0.184 2021-03-24 2021-03-24
BUMPER INDUSTRIE 1548-C 1 38 STD SUB 8 Ohms 32.60 183.77 0.636 2021-03-23 2021-03-23
FOCAL 130 A1 vp 6 14 CAR G 8 Ohms 68.60 6.58 0.622 2021-03-22 2021-03-22
ZEUZ 10 400 HC 2 25 CAR G 8 Ohms 43.06 66.06 0.367 2021-03-22 2021-03-22
AUDIO NIRVANA SUPER 15 FERRITE 1 38 LB G 8 Ohms 31.71 337.05 0.321 2021-03-20 2021-03-20
TANG BAND W4-1052SD vp JPP 2021 6 10 LB G 8 Ohms 85.52 4.50 0.652 2021-03-19 2021-03-19
PHL AUDIO 6201MNd 1 38 STD G 8 Ohms 36.00 138.40 0.266 2021-03-19 2021-03-19
TANG BAND W3-2141 vp JPP 2021 6 8 LB M 8 Ohms 111.00 1.12 0.409 2021-03-19 2021-03-19
SB ACOUSTICS SB16PFCR25-8 1 17 STD G 8 Ohms 40.90 20.99 0.398 2021-03-17 2021-03-17
MTX XT12-44 2 31 CAR SUB 2 Ohms 34.50 57.00 0.702 2021-03-15 2021-03-15
CELESTION BX15-4085 3 38 STD BM 8 Ohms 38.00 154.10 0.240 2021-03-11 2021-03-11
SIARE 31TE V2 1 31 --- G 8 Ohms 23.00 387.00 0.265 2013-03-21 2021-03-09
FOCAL 10V 01 3 25 --- G 8 Ohms 31.71 157.70 0.285 2021-03-08 2021-03-08
SEAS A22NRX vp 6 21 COAX G 8 Ohms 33.00 75.00 0.370 2021-03-06 2021-03-06
SB AUDIENCE BIANCO-15MW200 1 38 STD G 8 Ohms 44.00 153.00 0.586 2021-03-05 2021-03-05
SB AUDIENCE BIANCO-18SW450 1 46 STD G 8 Ohms 28.00 370.00 0.445 2021-03-03 2021-03-03
SB AUDIENCE BIANCO-18SW500 1 46 STD G 8 Ohms 30.00 335.00 0.516 2021-03-03 2021-03-03
FAITAL PRO 18HP1010 1 46 STD G 8 Ohms 35.00 215.30 0.399 2021-03-02 2021-03-02
SICA 18 F 3 CP 1 46 STD G 8 Ohms 30.80 340.00 0.444 2021-03-02 2021-03-02
FAITAL PRO 18FX600 1 46 STD G 8 Ohms 32.00 257.80 0.279 2021-03-02 2021-03-02
MONACOR SPH-60X vp 04 6 12 LB G 8 Ohms 45.79 21.85 0.383 2021-02-27 2021-02-27
DLS DLS 1021 3 25 STD BM 8 Ohms 60.97 35.50 0.312 2021-02-27 2021-02-27
MONACOR SPH-60X vp 11 6 12 LB G 8 Ohms 53.73 17.24 0.418 2021-02-27 2021-02-27
MONACOR SPH-60X vp 05 6 12 LB G 8 Ohms 52.32 18.07 0.398 2021-02-27 2021-02-27
MONACOR SPH-60X vp 12 6 12 LB G 8 Ohms 47.07 16.31 0.385 2021-02-27 2021-02-27
MONACOR SPH-60X vp 06 6 12 LB G 8 Ohms 52.62 16.62 0.411 2021-02-27 2021-02-27
MONACOR SPH-60X vp 07 6 12 LB G 8 Ohms 53.60 18.51 0.443 2021-02-27 2021-02-27
MONACOR SPH-60X vp 01 6 12 LB G 8 Ohms 54.71 11.22 0.426 2021-02-27 2021-02-27
MONACOR SPH-60X vp 08 6 12 LB G 8 Ohms 47.17 17.55 0.376 2021-02-27 2021-02-27
MONACOR SPH-60X vp 02 6 12 LB G 8 Ohms 47.24 16.66 0.381 2021-02-27 2021-02-27
MONACOR SPH-60X vp 09 6 12 LB G 8 Ohms 46.97 19.40 0.374 2021-02-27 2021-02-27
MONACOR SPH-60X vp 03 6 12 LB G 8 Ohms 45.99 19.19 0.370 2021-02-27 2021-02-27
MONACOR SPH-60X vp 10 6 12 LB G 8 Ohms 53.43 14.89 0.411 2021-02-27 2021-02-27


Sélection pour voir les Paramètres THIELE et SMALL et les Domaines d'utilisation du HP

Notez que le séparateur décimal est le point, et non pas la virgule, dans toute la base de données.
Si vous devez rentrer 0.65 Ohms dans la case résistance du filtre passif, vous entrez : zéro, point, six, cinq.'

Sélectionnez le HP souhaité en cliquant dans le rond devant le numéro du haut-parleur.


Température en °C (de 0 à 50°C) :
Altitude en m (de -300 à +4000 m) :
% Humidité relative en % (de 0 à 100%) :
Facteur d'amortissement de l'ampli (Infini si >=400) :
Résistance du filtre passif :
Nombre, montage et branchement :
Type de l'enceinte :
Données T&S :
Cas d'emploi :
Variantes de l'enceinte Bass-reflex :


navigation_bdhp.jpg


Valid HTML 4.01 Transitional

Merci pour votre visite.

 

Dômes acoustique : La conception des enceintes acoustiques.

 

Malgré les apparences, ce site internet n'est que celui d'un amateur passionné Auvergnat.
"Amateur" doit être compris dans le sens "non professionnel", dans l'aspect financier de l'approche : Je ne vis pas des revenus de cette passion.
Il y a un savoir vivre élémentaire qui consiste à demander l'autorisation avant de reprendre tout ou partie de ce qui est écrit dans ce chapitre.
Je vous donnerai l'accord, demandez-le simplement pour être en règle. Sont exclus les demandes extravagantes.